Farmington ASC

2021-10-26 12:50:00

  • imperial
Date Time Air Temperature Relative Humidity Dewpoint Windchill Heat Index Wind Speed Wind Dir. Rain Solar Radiation Soil Temperature
2m 2m 3m 3m 10cm
US/Mountain F % F F F MPH deg in MJ/m^2 F
max avg avg
2021-10-25 13:00:00 71.8 26.3 35.3 71.8 71.8 6.7 9.2 6.0 114.3 103.4 0.00 0.6580000 55.8
2021-10-25 13:05:00 71.4 26.9 35.6 71.4 71.4 5.3 11.0 6.2 119.8 106.9 0.00 0.6570000 55.9
2021-10-25 13:10:00 71.6 26.4 35.3 71.6 71.6 7.2 11.2 6.3 79.8 98.8 0.00 0.6590000 56.0
2021-10-25 13:15:00 72.1 26.2 35.5 72.1 72.1 6.3 10.1 7.6 91.3 120.7 0.00 0.6570000 56.1
2021-10-25 13:20:00 72.1 26.8 36.1 72.1 72.1 9.6 14.2 9.9 120.5 124.2 0.00 0.6520000 56.2
2021-10-25 13:25:00 71.9 25.4 34.6 71.9 71.9 6.5 14.7 9.2 123.7 121.8 0.00 0.6510000 56.2
2021-10-25 13:30:00 72.0 25.6 34.8 72.0 72.0 6.7 14.7 7.8 119.4 120.6 0.00 0.6480000 56.4
2021-10-25 13:35:00 71.9 26.7 35.8 71.9 71.9 7.8 10.1 6.5 184.1 117.5 0.00 0.6440000 56.4
2021-10-25 13:40:00 72.8 24.6 34.5 72.8 72.8 11.0 11.0 6.8 117.4 123.2 0.00 0.6440000 56.5
2021-10-25 13:45:00 72.6 25.3 35.1 72.6 72.6 6.9 10.3 7.4 137.1 124.0 0.00 0.6390000 56.6
2021-10-25 13:50:00 72.6 24.2 34.0 72.6 72.6 9.6 14.2 9.6 151.7 145.6 0.00 0.6350000 56.7
2021-10-25 13:55:00 72.3 24.4 33.9 72.3 72.3 7.4 12.4 8.7 131.4 148.6 0.00 0.6280000 56.8
2021-10-25 14:00:00 72.6 25.4 35.2 72.6 72.6 6.5 8.0 5.9 113.5 140.4 0.00 0.6210000 56.8
2021-10-25 14:05:00 73.4 23.2 33.6 73.4 73.4 8.7 10.5 8.7 127.4 155.4 0.00 0.6170000 56.9
2021-10-25 14:10:00 73.8 23.6 34.3 73.8 73.8 12.8 13.9 8.8 142.3 151.4 0.00 0.6140000 57.0
2021-10-25 14:15:00 73.4 25.1 35.5 73.4 73.4 8.8 15.1 11.1 176.2 180.8 0.00 0.6100000 57.1
2021-10-25 14:20:00 74.2 23.3 34.3 74.2 74.2 8.1 14.0 10.1 130.5 167.7 0.00 0.6020000 57.1
2021-10-25 14:25:00 73.7 23.9 34.6 73.7 73.7 8.3 12.2 9.0 151.6 141.2 0.00 0.5940000 57.2
2021-10-25 14:30:00 74.8 26.6 38.2 74.8 74.8 9.6 12.8 8.8 176.9 165.9 0.00 0.5870000 57.2
2021-10-25 14:35:00 74.0 24.8 35.7 74.0 74.0 7.2 13.5 9.2 204.1 181.8 0.00 0.5780000 57.3
2021-10-25 14:40:00 74.9 21.9 33.4 74.9 74.9 10.6 10.6 7.7 130.9 166.7 0.00 0.5680000 57.4
2021-10-25 14:45:00 75.1 24.3 36.1 75.1 75.1 11.3 11.9 9.4 161.0 167.0 0.00 0.5610000 57.4
2021-10-25 14:50:00 74.7 22.8 34.2 74.7 74.7 11.5 15.6 12.7 165.4 166.7 0.00 0.5510000 57.5
2021-10-25 14:55:00 74.6 21.4 32.5 74.6 74.6 8.1 19.4 12.9 158.0 148.7 0.00 0.5470000 57.5
2021-10-25 15:00:00 75.0 21.2 32.6 75.0 75.0 7.1 17.2 11.4 146.8 146.9 0.00 0.5400000 57.6
2021-10-25 15:05:00 75.5 20.8 32.6 75.5 75.5 11.3 14.6 11.1 126.9 149.8 0.00 0.5340000 57.7
2021-10-25 15:10:00 74.9 23.3 34.9 74.9 74.9 14.2 16.2 11.1 181.6 183.4 0.00 0.5240000 57.7
2021-10-25 15:15:00 75.1 21.7 33.3 75.1 75.1 13.5 17.1 11.7 187.0 185.5 0.00 0.5090000 57.7
2021-10-25 15:20:00 74.6 22.9 34.3 74.6 74.6 12.4 20.3 14.7 188.4 187.5 0.00 0.4940000 57.7
2021-10-25 15:25:00 74.8 21.1 32.4 74.8 74.8 11.2 18.7 13.9 178.0 190.5 0.00 0.4830000 57.8
2021-10-25 15:30:00 75.8 18.3 29.7 75.8 75.8 12.4 18.7 13.0 139.9 169.1 0.00 0.4740000 57.8
2021-10-25 15:35:00 76.0 17.9 29.3 76.0 76.0 17.6 18.7 14.4 141.9 161.0 0.00 0.4640000 57.8
2021-10-25 15:40:00 76.0 17.7 29.0 76.0 76.0 13.9 18.9 14.0 162.9 158.6 0.00 0.4540000 57.8
2021-10-25 15:45:00 76.7 18.2 30.3 76.7 76.7 16.2 16.2 13.0 163.3 149.9 0.00 0.4460000 57.8
2021-10-25 15:50:00 76.4 19.5 31.7 76.4 76.4 12.4 19.2 14.2 178.1 168.9 0.00 0.4290000 57.9
2021-10-25 15:55:00 76.8 17.0 28.7 76.8 76.8 13.5 19.6 15.7 156.5 165.6 0.00 0.4160000 57.9
2021-10-25 16:00:00 77.2 17.0 29.0 77.2 77.2 19.4 20.8 15.6 153.4 159.3 0.00 0.4030000 57.9
2021-10-25 16:05:00 75.9 19.1 30.8 75.9 75.9 12.1 21.7 16.2 174.5 175.4 0.00 0.3910000 57.9
2021-10-25 16:10:00 76.6 17.3 28.9 76.6 76.6 14.0 17.4 13.3 161.3 167.3 0.00 0.3790000 57.9
2021-10-25 16:15:00 76.4 18.4 30.3 76.4 76.4 14.7 18.0 13.2 189.7 176.7 0.00 0.3660000 57.9
2021-10-25 16:20:00 76.3 17.6 29.1 76.3 76.3 13.5 18.9 13.0 168.1 175.2 0.00 0.3510000 57.9
2021-10-25 16:25:00 76.6 17.4 29.0 76.6 76.6 14.6 14.9 11.8 171.3 172.7 0.00 0.3350000 57.9
2021-10-25 16:30:00 75.6 18.4 29.6 75.6 75.6 12.8 19.8 15.4 172.7 179.0 0.00 0.3210000 57.9
2021-10-25 16:35:00 75.3 17.3 27.9 75.3 75.3 19.0 19.0 15.1 178.6 182.3 0.00 0.3050000 57.9
2021-10-25 16:40:00 75.6 18.0 29.0 75.6 75.6 11.5 20.6 14.9 169.3 175.7 0.00 0.2910000 57.9
2021-10-25 16:45:00 75.2 18.4 29.3 75.2 75.2 14.9 18.7 15.1 185.4 186.4 0.00 0.2760000 57.9
2021-10-25 16:50:00 75.1 18.4 29.2 75.1 75.1 10.8 16.7 13.4 183.5 187.3 0.00 0.2620000 57.9
2021-10-25 16:55:00 75.4 17.5 28.2 75.4 75.4 14.6 18.0 14.5 171.1 179.6 0.00 0.2480000 57.9
2021-10-25 17:00:00 75.0 18.5 29.2 75.0 75.0 11.2 18.5 14.3 181.5 185.1 0.00 0.2330000 57.9
2021-10-25 17:05:00 74.9 18.0 28.6 74.9 74.9 17.1 19.6 14.3 186.3 187.6 0.00 0.2170000 57.8
2021-10-25 17:10:00 74.7 17.7 28.0 74.7 74.7 11.9 17.4 15.0 183.2 187.6 0.00 0.2030000 57.8
2021-10-25 17:15:00 74.7 19.0 29.6 74.7 74.7 10.1 15.8 12.1 192.9 189.6 0.00 0.1880000 57.8
2021-10-25 17:20:00 74.2 18.6 28.8 74.2 74.2 13.0 17.1 12.8 190.6 190.5 0.00 0.1730000 57.8
2021-10-25 17:25:00 74.0 18.5 28.4 74.0 74.0 15.8 18.5 13.5 167.4 186.5 0.00 0.1580000 57.8
2021-10-25 17:30:00 73.7 19.2 29.1 73.7 73.7 11.3 18.1 13.3 186.1 190.8 0.00 0.1450000 57.7
2021-10-25 17:35:00 73.4 19.2 28.9 73.4 73.4 9.2 14.2 10.4 194.3 184.8 0.00 0.1290000 57.7
2021-10-25 17:40:00 73.8 18.4 28.2 73.8 73.8 10.8 14.6 11.7 161.8 179.6 0.00 0.1110000 57.7
2021-10-25 17:45:00 73.1 19.7 29.2 73.1 73.1 11.0 16.9 12.2 193.1 181.8 0.00 0.0910000 57.7
2021-10-25 17:50:00 72.6 19.4 28.5 72.6 72.6 14.2 16.5 12.4 182.8 187.6 0.00 0.0730000 57.7
2021-10-25 17:55:00 72.3 19.8 28.7 72.3 72.3 12.2 16.4 12.3 196.8 183.8 0.00 0.0560000 57.7
2021-10-25 18:00:00 72.0 20.6 29.4 72.0 72.0 8.7 15.6 11.3 196.6 183.0 0.00 0.0420000 57.6
2021-10-25 18:05:00 71.1 21.6 29.9 71.1 71.1 9.4 13.7 10.2 171.3 185.9 0.00 0.0300000 57.6
2021-10-25 18:10:00 70.8 21.3 29.3 70.8 70.8 14.4 15.1 12.2 193.3 184.6 0.00 0.0200000 57.6
2021-10-25 18:15:00 70.5 22.0 29.8 70.5 70.5 11.2 16.2 13.1 184.2 185.4 0.00 0.0110000 57.5
2021-10-25 18:20:00 69.9 22.3 29.6 69.9 69.9 12.6 15.6 11.6 182.5 183.9 0.00 0.0060000 57.5
2021-10-25 18:25:00 69.5 22.6 29.7 69.5 69.5 11.0 16.2 11.8 183.6 181.0 0.00 0.0030000 57.5
2021-10-25 18:30:00 69.0 23.3 30.0 69.0 69.0 9.7 13.5 11.0 173.6 177.8 0.00 0.0020000 57.5
2021-10-25 18:35:00 68.3 24.2 30.3 68.3 68.3 9.0 15.3 10.9 188.9 175.1 0.00 0.0010000 57.4
2021-10-25 18:40:00 68.1 24.0 29.9 68.1 68.1 10.3 13.1 11.0 180.9 175.0 0.00 0.0000000 57.4
2021-10-25 18:45:00 67.6 24.5 30.1 67.6 67.6 10.8 10.8 9.7 171.9 175.7 0.00 0.0000000 57.3
2021-10-25 18:50:00 67.1 24.2 29.3 67.1 67.1 10.1 12.8 10.0 160.0 169.0 0.00 0.0000000 57.3
2021-10-25 18:55:00 66.8 24.8 29.7 66.8 66.8 8.3 12.4 10.2 176.5 167.7 0.00 0.0000000 57.3
2021-10-25 19:00:00 65.9 25.0 29.0 65.9 65.9 9.2 11.2 8.8 162.3 170.3 0.00 0.0000000 57.2
2021-10-25 19:05:00 65.9 24.7 28.7 65.9 65.9 8.0 10.5 8.7 163.8 164.6 0.00 0.0000000 57.2
2021-10-25 19:10:00 65.8 25.1 29.0 65.8 65.8 9.2 11.0 9.0 158.9 163.1 0.00 0.0000000 57.2
2021-10-25 19:15:00 65.3 25.7 29.2 65.3 65.3 7.4 9.0 8.1 152.5 158.0 0.00 0.0000000 57.1
2021-10-25 19:20:00 64.3 27.0 29.6 64.3 64.3 9.2 9.2 7.5 131.6 150.6 0.00 0.0000000 57.1
2021-10-25 19:25:00 63.3 28.1 29.7 63.3 63.3 7.6 9.0 7.5 154.2 148.1 0.00 0.0000000 57.1
2021-10-25 19:30:00 64.5 26.2 29.1 64.5 64.5 8.5 10.3 8.8 161.1 155.7 0.00 0.0000000 57.1
2021-10-25 19:35:00 64.9 25.7 28.9 64.9 64.9 8.5 10.6 8.6 170.4 164.2 0.00 0.0000000 57.0
2021-10-25 19:40:00 63.9 26.9 29.1 63.9 63.9 7.6 9.2 7.9 168.3 173.2 0.00 0.0000000 57.0
2021-10-25 19:45:00 63.6 27.5 29.4 63.6 63.6 8.3 8.3 6.6 174.4 177.1 0.00 0.0000000 56.9
2021-10-25 19:50:00 63.4 27.4 29.2 63.4 63.4 9.2 10.3 7.4 183.9 188.6 0.00 0.0000000 56.9
2021-10-25 19:55:00 63.7 27.2 29.3 63.7 63.7 8.3 10.3 7.5 174.0 180.1 0.00 0.0000000 56.9
2021-10-25 20:00:00 63.0 28.3 29.6 63.0 63.0 5.8 7.8 6.6 164.7 187.6 0.00 0.0000000 56.9
2021-10-25 20:05:00 62.9 28.2 29.4 62.9 62.9 6.0 7.8 6.5 193.9 184.4 0.00 0.0000000 56.8
2021-10-25 20:10:00 63.7 26.1 28.3 63.7 63.7 9.2 10.8 8.6 209.3 194.6 0.00 0.0000000 56.8
2021-10-25 20:15:00 65.8 23.9 27.9 65.8 65.8 11.7 14.4 11.7 209.2 203.0 0.00 0.0000000 56.8
2021-10-25 20:20:00 66.5 23.3 27.9 66.5 66.5 12.4 17.6 13.1 202.5 210.0 0.00 0.0000000 56.7
2021-10-25 20:25:00 66.2 23.9 28.3 66.2 66.2 11.2 14.0 12.2 220.5 211.0 0.00 0.0000000 56.7
2021-10-25 20:30:00 65.6 24.4 28.2 65.6 65.6 10.5 13.3 11.3 219.7 216.2 0.00 0.0000000 56.7
2021-10-25 20:35:00 64.9 25.1 28.4 64.9 64.9 10.6 13.9 11.0 223.9 218.7 0.00 0.0000000 56.6
2021-10-25 20:40:00 64.7 25.1 28.1 64.7 64.7 10.1 13.5 10.9 220.2 218.0 0.00 0.0000000 56.6
2021-10-25 20:45:00 64.4 25.2 28.1 64.4 64.4 10.6 12.6 10.6 216.5 220.6 0.00 0.0000000 56.5
2021-10-25 20:50:00 63.7 26.4 28.5 63.7 63.7 8.3 12.1 9.9 203.5 213.8 0.00 0.0000000 56.5
2021-10-25 20:55:00 63.7 26.2 28.3 63.7 63.7 10.1 10.6 9.4 212.2 214.2 0.00 0.0000000 56.5
2021-10-25 21:00:00 63.6 25.8 27.9 63.6 63.6 8.8 10.6 8.9 212.5 217.7 0.00 0.0000000 56.4
2021-10-25 21:05:00 62.9 26.7 28.1 62.9 62.9 9.0 9.9 8.0 220.0 216.9 0.00 0.0000000 56.4
2021-10-25 21:10:00 63.0 27.3 28.8 63.0 63.0 6.3 11.7 8.4 212.9 216.0 0.00 0.0000000 56.4
2021-10-25 21:15:00 62.2 27.3 28.1 62.2 62.2 6.7 9.7 7.7 213.3 214.7 0.00 0.0000000 56.4
2021-10-25 21:20:00 63.3 25.7 27.6 63.3 63.3 9.6 12.1 9.6 206.5 216.0 0.00 0.0000000 56.3
2021-10-25 21:25:00 62.9 26.4 27.8 62.9 62.9 7.2 12.4 9.5 191.9 203.0 0.00 0.0000000 56.3
2021-10-25 21:30:00 60.9 28.5 28.0 60.9 60.9 7.1 8.3 7.2 188.0 190.7 0.00 0.0000000 56.3
2021-10-25 21:35:00 58.9 31.1 28.4 58.9 58.9 4.7 7.4 5.2 198.2 187.6 0.00 0.0000000 56.2
2021-10-25 21:40:00 58.0 32.3 28.5 58.0 58.0 5.3 6.2 5.3 188.1 184.5 0.00 0.0000000 56.2
2021-10-25 21:45:00 57.8 31.9 28.1 57.8 57.8 5.8 7.1 5.8 180.5 183.9 0.00 0.0000000 56.2
2021-10-25 21:50:00 58.3 33.2 29.4 58.3 58.3 5.3 8.1 6.5 170.2 180.3 0.00 0.0000000 56.2
2021-10-25 21:55:00 57.2 32.8 28.1 57.2 57.2 4.9 7.6 5.9 149.7 165.9 0.00 0.0000000 56.1
2021-10-25 22:00:00 56.1 34.0 28.1 56.1 56.1 7.4 7.4 6.1 146.2 143.0 0.00 0.0000000 56.1
2021-10-25 22:05:00 55.8 34.3 28.0 55.8 55.8 6.0 8.0 6.8 146.1 147.2 0.00 0.0000000 56.1
2021-10-25 22:10:00 55.8 34.2 28.0 55.8 55.8 7.2 9.6 6.8 152.1 144.9 0.00 0.0000000 56.1
2021-10-25 22:15:00 55.2 34.7 27.7 55.2 55.2 7.2 8.7 7.7 128.3 136.4 0.00 0.0000000 56.0
2021-10-25 22:20:00 54.9 34.9 27.7 54.9 54.9 6.9 9.2 7.8 157.6 145.9 0.00 0.0000000 56.0
2021-10-25 22:25:00 55.3 34.4 27.7 55.3 55.3 6.0 9.6 6.9 164.7 161.4 0.00 0.0000000 56.0
2021-10-25 22:30:00 55.0 35.3 28.1 55.0 55.0 6.0 7.2 6.3 172.0 168.6 0.00 0.0000000 55.9
2021-10-25 22:35:00 53.9 37.7 28.7 53.9 53.9 5.5 6.9 5.5 178.8 173.7 0.00 0.0000000 55.9
2021-10-25 22:40:00 53.3 39.5 29.3 53.3 53.3 4.6 5.8 4.7 166.6 170.8 0.00 0.0000000 55.8
2021-10-25 22:45:00 52.3 41.2 29.4 52.3 52.3 3.8 5.1 4.2 173.5 175.8 0.00 0.0000000 55.8
2021-10-25 22:50:00 52.3 41.3 29.4 52.3 52.3 3.7 3.8 3.3 194.6 184.3 0.00 0.0000000 55.8
2021-10-25 22:55:00 52.5 40.2 28.9 52.5 52.5 8.1 8.1 4.8 161.7 182.1 0.00 0.0000000 55.8
2021-10-25 23:00:00 54.6 36.9 28.8 54.6 54.6 6.7 11.5 8.5 179.9 166.6 0.00 0.0000000 55.7
2021-10-25 23:05:00 54.6 36.3 28.4 54.6 54.6 5.8 9.0 7.3 162.1 168.1 0.00 0.0000000 55.7
2021-10-25 23:10:00 54.3 36.1 28.0 54.3 54.3 5.3 7.6 5.9 166.0 166.8 0.00 0.0000000 55.7
2021-10-25 23:15:00 54.8 36.4 28.6 54.8 54.8 4.7 6.3 5.4 150.9 162.2 0.00 0.0000000 55.6
2021-10-25 23:20:00 54.8 36.2 28.4 54.8 54.8 4.7 6.3 5.2 158.1 156.2 0.00 0.0000000 55.6
2021-10-25 23:25:00 54.3 36.8 28.5 54.3 54.3 5.3 6.2 4.8 132.8 140.2 0.00 0.0000000 55.6
2021-10-25 23:30:00 53.7 37.6 28.4 53.7 53.7 5.8 6.2 5.6 130.2 132.2 0.00 0.0000000 55.5
2021-10-25 23:35:00 54.2 37.0 28.5 54.2 54.2 6.9 8.5 6.1 126.2 130.9 0.00 0.0000000 55.5
2021-10-25 23:40:00 54.8 36.7 28.8 54.8 54.8 5.8 7.8 6.5 145.3 128.8 0.00 0.0000000 55.5
2021-10-25 23:45:00 55.1 36.1 28.7 55.1 55.1 7.4 8.5 7.2 131.7 129.3 0.00 0.0000000 55.5
2021-10-25 23:50:00 55.6 35.6 28.7 55.6 55.6 9.4 10.1 7.7 120.4 129.5 0.00 0.0000000 55.4
2021-10-25 23:55:00 56.2 35.1 29.0 56.2 56.2 9.2 9.9 8.6 138.3 132.7 0.00 0.0000000 55.4
2021-10-26 00:00:00 56.2 35.9 29.5 56.2 56.2 8.1 11.3 9.0 126.1 133.9 0.00 0.0000000 55.4
2021-10-26 00:05:00 56.3 36.2 29.8 56.3 56.3 10.8 11.7 9.6 130.8 130.2 0.00 0.0000000 55.3
2021-10-26 00:10:00 56.5 36.2 30.0 56.5 56.5 9.0 11.2 9.7 133.5 129.5 0.00 0.0000000 55.3
2021-10-26 00:15:00 56.6 36.6 30.3 56.6 56.6 8.8 11.3 9.5 120.9 129.9 0.00 0.0000000 55.3
2021-10-26 00:20:00 56.7 37.0 30.7 56.7 56.7 10.3 10.8 9.3 134.3 132.8 0.00 0.0000000 55.3
2021-10-26 00:25:00 56.2 37.8 30.7 56.2 56.2 10.8 12.2 9.1 130.0 134.1 0.00 0.0000000 55.2
2021-10-26 00:30:00 56.2 38.2 31.0 56.2 56.2 8.0 10.6 8.1 131.2 132.5 0.00 0.0000000 55.2
2021-10-26 00:35:00 56.1 38.6 31.2 56.1 56.1 9.2 9.2 7.1 127.9 135.1 0.00 0.0000000 55.2
2021-10-26 00:40:00 56.0 39.0 31.4 56.0 56.0 7.6 8.3 7.0 161.0 134.4 0.00 0.0000000 55.1
2021-10-26 00:45:00 55.9 39.2 31.4 55.9 55.9 8.3 8.8 6.9 127.8 131.0 0.00 0.0000000 55.1
2021-10-26 00:50:00 56.1 39.2 31.6 56.1 56.1 7.4 9.6 7.9 106.6 127.5 0.00 0.0000000 55.1
2021-10-26 00:55:00 56.2 39.4 31.8 56.2 56.2 8.5 9.0 7.9 141.0 125.7 0.00 0.0000000 55.0
2021-10-26 01:00:00 56.5 39.6 32.2 56.5 56.5 8.5 10.1 8.4 129.5 127.3 0.00 0.0000000 55.0
2021-10-26 01:05:00 56.5 40.0 32.5 56.5 56.5 8.1 10.6 8.0 121.7 132.0 0.00 0.0000000 55.0
2021-10-26 01:10:00 56.9 39.7 32.7 56.9 56.9 8.8 10.6 8.5 131.8 129.8 0.00 0.0000000 55.0
2021-10-26 01:15:00 56.8 40.1 32.8 56.8 56.8 9.4 9.7 8.2 137.0 135.0 0.00 0.0000000 55.0
2021-10-26 01:20:00 56.6 40.8 33.0 56.6 56.6 7.8 10.3 8.3 146.2 139.0 0.00 0.0000000 54.9
2021-10-26 01:25:00 56.6 41.3 33.3 56.6 56.6 9.9 11.3 8.6 151.4 145.5 0.00 0.0000000 54.9
2021-10-26 01:30:00 57.3 40.7 33.6 57.3 57.3 9.0 11.7 9.6 152.2 149.7 0.00 0.0000000 54.9
2021-10-26 01:35:00 57.6 40.6 33.8 57.6 57.6 10.1 12.2 9.8 156.3 149.0 0.00 0.0000000 54.9
2021-10-26 01:40:00 57.5 41.1 34.0 57.5 57.5 8.0 12.2 9.6 145.7 153.0 0.00 0.0000000 54.8
2021-10-26 01:45:00 57.3 41.4 34.0 57.3 57.3 11.3 12.6 9.4 155.9 156.6 0.00 0.0000000 54.8
2021-10-26 01:50:00 57.5 41.2 34.1 57.5 57.5 9.9 11.7 9.5 147.6 158.1 0.00 0.0000000 54.8
2021-10-26 01:55:00 57.4 41.2 34.0 57.4 57.4 9.2 13.3 9.9 152.2 156.9 0.00 0.0000000 54.8
2021-10-26 02:00:00 57.2 41.4 33.9 57.2 57.2 12.8 12.8 10.4 173.6 163.5 0.00 0.0000000 54.8
2021-10-26 02:05:00 56.9 42.5 34.3 56.9 56.9 9.7 12.2 9.8 138.0 153.1 0.00 0.0000000 54.8
2021-10-26 02:10:00 55.7 44.1 34.2 55.7 55.7 7.6 9.6 8.1 158.1 151.1 0.00 0.0000000 54.7
2021-10-26 02:15:00 55.5 44.3 34.1 55.5 55.5 8.3 11.0 8.5 149.0 150.9 0.00 0.0000000 54.7
2021-10-26 02:20:00 55.0 44.5 33.8 55.0 55.0 8.8 11.0 8.0 143.6 147.1 0.00 0.0000000 54.7
2021-10-26 02:25:00 53.2 45.6 32.7 53.2 53.2 10.5 10.5 7.7 120.6 131.5 0.00 0.0000000 54.7
2021-10-26 02:30:00 53.0 44.0 31.6 53.0 53.0 11.9 11.9 9.1 126.6 132.8 0.00 0.0000000 54.7
2021-10-26 02:35:00 53.5 43.5 31.9 53.5 53.5 8.3 12.4 9.8 131.7 129.9 0.00 0.0000000 54.7
2021-10-26 02:40:00 53.2 43.7 31.6 53.2 53.2 9.6 11.9 10.1 128.2 130.4 0.00 0.0000000 54.6
2021-10-26 02:45:00 52.9 43.7 31.4 52.9 52.9 9.6 11.7 10.1 108.3 126.1 0.00 0.0000000 54.6
2021-10-26 02:50:00 52.5 44.3 31.4 52.5 52.5 10.8 13.0 10.7 118.1 127.4 0.00 0.0000000 54.6
2021-10-26 02:55:00 52.8 44.2 31.6 52.8 52.8 10.1 13.1 10.8 132.4 130.8 0.00 0.0000000 54.6
2021-10-26 03:00:00 53.2 44.3 32.0 53.2 53.2 10.5 12.2 10.0 138.5 132.3 0.00 0.0000000 54.5
2021-10-26 03:05:00 52.9 45.4 32.3 52.9 52.9 9.9 11.3 9.4 138.1 134.4 0.00 0.0000000 54.5
2021-10-26 03:10:00 52.8 46.5 32.8 52.8 52.8 9.4 10.5 8.8 142.0 138.2 0.00 0.0000000 54.5
2021-10-26 03:15:00 53.2 46.8 33.4 53.2 53.2 10.5 10.5 8.3 140.0 141.2 0.00 0.0000000 54.5
2021-10-26 03:20:00 54.0 46.4 33.9 54.0 54.0 9.2 11.2 9.4 130.5 139.9 0.00 0.0000000 54.4
2021-10-26 03:25:00 54.1 46.5 34.0 54.1 54.1 10.3 11.5 9.4 150.7 141.7 0.00 0.0000000 54.4
2021-10-26 03:30:00 54.0 47.1 34.3 54.0 54.0 7.8 11.2 9.3 125.1 140.5 0.00 0.0000000 54.4
2021-10-26 03:35:00 53.7 47.3 34.1 53.7 53.7 9.2 10.6 8.9 142.3 143.1 0.00 0.0000000 54.4
2021-10-26 03:40:00 53.8 47.3 34.2 53.8 53.8 8.5 11.5 8.6 153.8 146.2 0.00 0.0000000 54.4
2021-10-26 03:45:00 53.6 47.7 34.2 53.6 53.6 8.0 9.0 7.9 157.4 151.5 0.00 0.0000000 54.3
2021-10-26 03:50:00 53.5 48.1 34.3 53.5 53.5 6.0 11.2 8.3 158.4 146.7 0.00 0.0000000 54.3
2021-10-26 03:55:00 53.1 49.4 34.6 53.1 53.1 5.6 8.7 6.8 145.9 152.4 0.00 0.0000000 54.3
2021-10-26 04:00:00 52.6 50.7 34.8 52.6 52.6 5.6 8.7 6.7 165.3 154.5 0.00 0.0000000 54.3
2021-10-26 04:05:00 52.9 53.3 36.4 52.9 52.9 9.4 11.3 8.3 178.2 172.6 0.00 0.0000000 54.2
2021-10-26 04:10:00 55.1 50.7 37.1 55.1 55.1 11.0 14.0 11.5 185.1 183.9 0.00 0.0000000 54.2
2021-10-26 04:15:00 55.9 50.0 37.5 55.9 55.9 14.2 16.2 14.0 181.0 183.8 0.00 0.0000000 54.2
2021-10-26 04:20:00 56.2 50.0 37.8 56.2 56.2 17.4 18.5 15.1 168.9 178.2 0.00 0.0000000 54.2
2021-10-26 04:25:00 56.6 49.8 38.0 56.6 56.6 16.9 21.0 17.3 172.2 179.2 0.00 0.0000000 54.2
2021-10-26 04:30:00 56.7 50.2 38.4 56.7 56.7 19.8 21.2 17.3 193.1 186.6 0.00 0.0000000 54.2
2021-10-26 04:35:00 56.5 50.9 38.5 56.5 56.5 16.4 22.8 17.4 168.2 184.6 0.00 0.0000000 54.2
2021-10-26 04:40:00 56.3 51.6 38.7 56.3 56.3 16.2 19.8 15.7 191.7 189.4 0.00 0.0000000 54.1
2021-10-26 04:45:00 56.3 51.8 38.8 56.3 56.3 16.4 21.7 16.3 195.9 190.0 0.00 0.0000000 54.1
2021-10-26 04:50:00 56.5 51.8 39.0 56.5 56.5 16.0 19.8 15.9 186.7 186.4 0.00 0.0000000 54.1
2021-10-26 04:55:00 56.0 52.2 38.7 56.0 56.0 12.1 19.4 14.3 175.8 183.6 0.00 0.0000000 54.1
2021-10-26 05:00:00 55.6 52.3 38.4 55.6 55.6 12.8 17.4 13.5 187.5 179.4 0.00 0.0000000 54.1
2021-10-26 05:05:00 55.7 52.9 38.7 55.7 55.7 12.2 17.1 14.2 168.6 177.3 0.00 0.0000000 54.1
2021-10-26 05:10:00 55.4 53.7 38.9 55.4 55.4 14.4 17.4 13.6 174.7 175.3 0.00 0.0000000 54.1
2021-10-26 05:15:00 55.3 54.8 39.3 55.3 55.3 11.5 17.4 14.0 176.2 175.9 0.00 0.0000000 54.1
2021-10-26 05:20:00 55.4 55.2 39.6 55.4 55.4 13.3 18.5 13.7 175.0 177.8 0.00 0.0000000 54.1
2021-10-26 05:25:00 55.8 55.8 40.2 55.8 55.8 15.3 18.3 14.6 178.9 177.7 0.00 0.0000000 54.1
2021-10-26 05:30:00 56.0 55.7 40.3 56.0 56.0 15.1 19.9 15.6 168.7 179.4 0.00 0.0000000 54.1
2021-10-26 05:35:00 56.5 55.0 40.5 56.5 56.5 15.5 19.4 16.3 173.7 179.1 0.00 0.0000000 54.1
2021-10-26 05:40:00 56.2 55.2 40.3 56.2 56.2 13.0 19.4 14.8 193.3 178.6 0.00 0.0000000 54.0
2021-10-26 05:45:00 56.0 55.4 40.2 56.0 56.0 13.9 16.2 13.3 180.1 176.7 0.00 0.0000000 54.0
2021-10-26 05:50:00 55.9 56.0 40.4 55.9 55.9 14.6 17.4 12.9 179.4 179.3 0.00 0.0000000 54.0
2021-10-26 05:55:00 55.8 56.1 40.4 55.8 55.8 11.2 18.1 14.4 188.9 179.3 0.00 0.0000000 54.0
2021-10-26 06:00:00 55.9 56.1 40.5 55.9 55.9 11.0 22.6 16.0 190.2 183.0 0.00 0.0000000 54.0
2021-10-26 06:05:00 55.7 55.4 39.9 55.7 55.7 16.5 23.2 15.2 179.2 180.1 0.00 0.0000000 54.0
2021-10-26 06:10:00 55.5 56.1 40.1 55.5 55.5 14.6 18.7 15.1 174.0 178.7 0.00 0.0000000 54.0
2021-10-26 06:15:00 55.2 56.7 40.1 55.2 55.2 12.4 19.4 15.2 175.0 174.1 0.00 0.0000000 54.0
2021-10-26 06:20:00 54.7 57.7 40.1 54.7 54.7 17.8 19.9 17.1 180.6 178.4 0.00 0.0000000 54.0
2021-10-26 06:25:00 55.0 57.9 40.4 55.0 55.0 16.0 21.7 17.6 187.2 180.3 0.00 0.0000000 54.0
2021-10-26 06:30:00 55.1 57.8 40.5 55.1 55.1 18.1 22.8 17.6 206.8 188.6 0.00 0.0000000 54.0
2021-10-26 06:35:00 54.7 58.4 40.4 54.7 54.7 14.7 21.5 16.4 179.9 188.5 0.00 0.0000000 54.0
2021-10-26 06:40:00 54.7 58.5 40.5 54.7 54.7 18.9 19.8 15.6 185.9 183.1 0.00 0.0000000 54.0
2021-10-26 06:45:00 54.6 58.6 40.3 54.6 54.6 13.9 20.1 15.7 182.6 187.2 0.00 0.0000000 54.0
2021-10-26 06:50:00 54.6 58.1 40.2 54.6 54.6 19.0 22.3 16.7 187.9 187.2 0.00 0.0000000 54.0
2021-10-26 06:55:00 54.9 59.1 40.8 54.9 54.9 15.1 20.3 15.7 186.1 187.5 0.00 0.0000000 54.0
2021-10-26 07:00:00 53.8 66.9 43.0 53.8 53.8 12.2 21.5 17.2 187.7 187.3 0.00 0.0000000 54.0
2021-10-26 07:05:00 53.5 65.7 42.2 53.5 53.5 16.9 28.0 17.0 247.1 200.9 0.00 0.0000000 54.0
2021-10-26 07:10:00 48.0 84.2 43.5 40.3 48.0 23.5 25.6 18.6 241.4 263.8 0.00 0.0000000 53.9
2021-10-26 07:15:00 46.5 92.9 44.5 38.8 46.5 20.6 26.0 19.7 251.9 255.6 0.00 0.0000000 53.9
2021-10-26 07:20:00 45.9 94.3 44.3 39.7 45.9 13.7 19.4 14.8 262.8 257.3 0.01 0.0000000 53.9
2021-10-26 07:25:00 45.7 90.8 43.2 38.1 45.7 19.0 19.4 14.4 256.9 261.1 0.01 0.0000000 53.9
2021-10-26 07:30:00 45.8 92.1 43.7 40.7 45.8 10.5 18.0 11.9 247.0 250.9 0.01 0.0010000 53.9
2021-10-26 07:35:00 46.2 86.9 42.5 40.1 46.2 13.7 16.0 11.7 232.6 246.0 0.00 0.0010000 53.9
2021-10-26 07:40:00 46.3 89.1 43.2 42.1 46.3 8.3 13.7 9.9 262.4 250.8 0.01 0.0020000 53.8
2021-10-26 07:45:00 45.7 91.3 43.3 41.5 45.7 8.1 9.7 7.8 288.8 263.9 0.00 0.0030000 53.8
2021-10-26 07:50:00 45.7 90.6 43.1 41.5 45.7 7.8 9.4 8.0 270.7 264.6 0.00 0.0140000 53.8
2021-10-26 07:55:00 45.5 89.6 42.7 40.8 45.5 9.2 11.0 8.9 274.2 261.9 0.00 0.0200000 53.8
2021-10-26 08:00:00 45.3 93.1 43.4 41.1 45.3 7.8 10.3 7.0 262.2 266.1 0.00 0.0120000 53.8
2021-10-26 08:05:00 45.3 94.6 43.8 42.4 45.3 5.5 8.3 6.9 295.7 279.2 0.00 0.0090000 53.8
2021-10-26 08:10:00 44.9 94.1 43.3 42.8 44.9 4.2 9.0 6.2 280.1 277.8 0.00 0.0150000 53.8
2021-10-26 08:15:00 44.8 93.3 42.9 41.5 44.8 5.8 9.7 6.7 281.9 284.0 0.00 0.0240000 53.8
2021-10-26 08:20:00 44.6 91.3 42.2 40.7 44.6 6.9 11.9 6.6 299.1 284.1 0.00 0.0270000 53.8
2021-10-26 08:25:00 44.6 90.8 42.1 40.8 44.6 6.7 10.3 6.9 271.6 281.6 0.00 0.0590000 53.8
2021-10-26 08:30:00 44.5 91.2 42.1 41.2 44.5 5.8 9.6 7.3 257.1 278.1 0.00 0.1080000 53.8
2021-10-26 08:35:00 44.6 91.4 42.2 41.1 44.6 6.2 9.4 7.8 265.7 279.4 0.00 0.1170000 53.8
2021-10-26 08:40:00 44.9 89.3 42.0 40.4 44.9 8.5 10.5 8.0 266.1 271.9 0.00 0.0750000 53.8
2021-10-26 08:45:00 44.5 86.9 40.9 39.9 44.5 8.3 9.9 7.8 256.8 275.5 0.00 0.1270000 53.8
2021-10-26 08:50:00 44.4 87.3 40.9 39.7 44.4 8.5 11.7 8.2 252.4 268.9 0.00 0.0560000 53.9
2021-10-26 08:55:00 44.0 91.1 41.6 39.2 44.0 8.5 12.1 9.1 253.1 258.4 0.00 0.0520000 53.9
2021-10-26 09:00:00 43.7 88.0 40.4 39.4 43.7 7.4 11.9 9.2 219.9 253.0 0.00 0.1760000 53.9
2021-10-26 09:05:00 44.3 86.1 40.4 40.7 44.3 6.2 10.5 7.5 246.4 247.4 0.00 0.2850000 53.9
2021-10-26 09:10:00 45.3 86.8 41.6 41.8 45.3 6.3 8.1 7.0 258.1 246.2 0.00 0.2780000 53.9
2021-10-26 09:15:00 45.4 84.9 41.1 42.4 45.4 5.6 7.2 5.9 272.8 264.7 0.00 0.3650000 53.9
2021-10-26 09:20:00 45.8 83.0 40.9 40.9 45.8 9.7 9.7 5.8 271.2 277.8 0.00 0.2940000 53.9
2021-10-26 09:25:00 45.9 81.1 40.5 41.6 45.9 8.3 9.6 6.8 303.6 286.9 0.00 0.3220000 53.9
2021-10-26 09:30:00 46.4 79.1 40.3 41.8 46.4 9.4 11.7 7.9 253.6 270.6 0.00 0.3400000 53.9
2021-10-26 09:35:00 47.2 79.5 41.2 42.9 47.2 9.0 14.0 9.9 236.8 257.8 0.00 0.3540000 54.0
2021-10-26 09:40:00 47.8 78.8 41.5 44.2 47.8 7.6 14.6 11.3 250.7 240.8 0.00 0.3710000 54.0
2021-10-26 09:45:00 48.0 70.1 38.7 42.4 48.0 13.9 15.8 12.3 247.5 239.0 0.00 0.3860000 54.0
2021-10-26 09:50:00 48.3 67.4 38.0 42.4 48.3 15.3 15.3 12.1 257.0 243.3 0.00 0.4050000 54.1
2021-10-26 09:55:00 48.2 70.9 39.2 43.6 48.2 10.8 17.8 13.4 270.2 252.3 0.00 0.4450000 54.1
2021-10-26 10:00:00 48.8 64.4 37.4 44.1 48.8 11.5 14.2 11.1 248.3 252.5 0.00 0.4860000 54.1
2021-10-26 10:05:00 50.1 57.7 35.7 50.1 50.1 15.1 16.7 13.7 250.2 250.6 0.00 0.6290000 54.1
2021-10-26 10:10:00 49.3 56.2 34.3 44.0 49.3 13.9 19.4 13.8 296.4 266.0 0.00 0.5670000 54.2
2021-10-26 10:15:00 47.3 54.1 31.5 41.2 47.3 14.9 21.2 16.5 255.5 264.0 0.00 0.4290000 54.2
2021-10-26 10:20:00 47.9 52.9 31.5 41.4 47.9 17.1 22.4 18.2 256.4 257.6 0.00 0.4800000 54.2
2021-10-26 10:25:00 47.7 52.6 31.2 41.3 47.7 16.9 26.5 21.6 271.8 256.8 0.00 0.4840000 54.3
2021-10-26 10:30:00 47.9 54.5 32.3 42.1 47.9 14.2 25.5 19.8 270.2 252.0 0.00 0.4960000 54.3
2021-10-26 10:35:00 47.9 52.3 31.3 41.4 47.9 17.2 23.3 18.4 224.9 247.5 0.00 0.5060000 54.4
2021-10-26 10:40:00 47.9 54.6 32.3 42.1 47.9 14.4 23.9 17.0 285.9 263.5 0.00 0.5180000 54.4
2021-10-26 10:45:00 47.6 53.7 31.6 41.5 47.6 15.1 24.8 19.0 276.6 258.6 0.00 0.5270000 54.4
2021-10-26 10:50:00 48.0 51.9 31.1 40.4 48.0 22.6 25.5 19.7 268.3 259.0 0.00 0.5340000 54.4
2021-10-26 10:55:00 48.3 53.5 32.2 41.1 48.3 21.0 24.8 20.3 241.7 249.8 0.00 0.5470000 54.5
2021-10-26 11:00:00 48.7 55.6 33.5 42.1 48.7 18.3 23.7 16.7 261.4 256.2 0.00 0.5560000 54.5
2021-10-26 11:05:00 48.1 54.2 32.4 42.4 48.1 14.6 23.7 17.4 249.7 265.3 0.00 0.5640000 54.6
2021-10-26 11:10:00 48.3 52.9 31.9 42.1 48.3 16.2 22.1 17.0 269.4 258.8 0.00 0.5860000 54.6
2021-10-26 11:15:00 49.6 52.2 32.8 44.0 49.6 15.1 17.1 13.7 269.2 274.6 0.00 0.5940000 54.6
2021-10-26 11:20:00 49.0 54.7 33.4 43.2 49.0 15.6 19.6 15.5 269.8 269.1 0.00 0.6020000 54.7
2021-10-26 11:25:00 49.1 51.8 32.2 42.7 49.1 18.7 21.2 15.8 247.8 262.3 0.00 0.6120000 54.7
2021-10-26 11:30:00 49.4 51.4 32.2 43.5 49.4 16.2 23.9 17.1 232.7 259.3 0.00 0.6480000 54.8
2021-10-26 11:35:00 49.7 54.1 33.7 44.6 49.7 13.5 23.7 17.0 249.9 256.0 0.00 0.6290000 54.8
2021-10-26 11:40:00 50.1 51.7 33.0 50.1 50.1 15.8 18.9 15.8 272.6 262.2 0.00 0.3010000 54.9
2021-10-26 11:45:00 49.6 51.1 32.2 43.5 49.6 17.2 21.7 16.1 251.6 255.8 0.00 0.3510000 54.9
2021-10-26 11:50:00 48.9 51.8 32.0 43.1 48.9 15.8 21.4 17.5 263.0 251.6 0.00 0.2800000 55.0
2021-10-26 11:55:00 48.4 53.1 32.1 42.4 48.4 15.8 23.3 16.6 251.5 256.0 0.00 0.7150000 55.0
2021-10-26 12:00:00 49.0 53.5 32.8 43.6 49.0 13.9 22.8 17.1 256.9 257.1 0.00 0.7850000 55.1
2021-10-26 12:05:00 49.4 51.1 32.0 42.9 49.4 19.0 21.0 18.3 260.1 254.5 0.00 0.6980000 55.1
2021-10-26 12:10:00 48.9 50.4 31.2 41.9 48.9 21.0 24.2 18.0 244.6 252.6 0.00 0.2600000 55.2
2021-10-26 12:15:00 50.1 50.8 32.6 50.1 50.1 18.1 21.7 15.8 266.9 263.1 0.00 0.6320000 55.3
2021-10-26 12:20:00 49.0 51.3 31.8 42.3 49.0 20.3 21.5 18.0 259.8 252.6 0.00 0.3210000 55.3
2021-10-26 12:25:00 49.2 55.4 33.9 44.4 49.2 11.7 23.0 16.0 271.2 256.1 0.00 0.9140000 55.3
2021-10-26 12:30:00 50.0 52.3 33.2 50.0 50.0 14.9 19.4 16.5 250.8 255.7 0.00 0.8690000 55.4
2021-10-26 12:35:00 49.9 51.0 32.4 43.6 49.9 18.9 22.4 18.0 251.0 256.6 0.00 0.9130000 55.4
2021-10-26 12:40:00 48.9 51.9 31.9 42.6 48.9 17.4 22.3 17.8 251.8 255.0 0.00 0.1960000 55.5
2021-10-26 12:45:00 48.2 54.0 32.3 41.7 48.2 17.6 20.8 16.9 252.9 260.8 0.00 0.2010000 55.5
2021-10-26 12:50:00 48.9 52.0 32.1 43.1 48.9 15.5 21.2 15.7 264.0 250.0 0.00 0.3920000 55.6

Data is courtesy of the NM Climate Center. DO NOT USE IN LEGAL PROCEEDINGS.